createdAt,value
2023-01-04T00:01:02.680Z,8.26
2023-01-04T00:03:31.139Z,8.22
2023-01-04T00:05:59.701Z,8.22
2023-01-04T00:08:26.215Z,8.20
2023-01-04T00:10:52.670Z,8.20
2023-01-04T00:13:19.231Z,8.16
2023-01-04T00:15:45.702Z,8.17
2023-01-04T00:18:12.243Z,8.15
2023-01-04T00:20:38.667Z,8.11
2023-01-04T00:23:05.135Z,8.10
2023-01-04T00:25:31.635Z,8.09
2023-01-04T00:27:58.110Z,8.07
2023-01-04T00:30:24.548Z,8.10
2023-01-04T00:32:51.055Z,8.06
2023-01-04T00:35:43.629Z,8.06
2023-01-04T00:38:03.962Z,8.05
2023-01-04T00:40:30.389Z,8.06
2023-01-04T00:42:56.870Z,8.05
2023-01-04T00:45:23.292Z,8.07
2023-01-04T00:47:49.724Z,8.08
2023-01-04T00:50:16.241Z,8.08
2023-01-04T00:52:42.706Z,8.10
2023-01-04T00:55:09.740Z,8.10
2023-01-04T00:57:36.217Z,8.13
2023-01-04T01:00:02.819Z,8.11
2023-01-04T01:02:29.566Z,8.13
2023-01-04T01:04:56.332Z,8.14
2023-01-04T01:07:22.885Z,8.14
2023-01-04T01:09:49.331Z,8.14
2023-01-04T01:12:15.817Z,8.16
2023-01-04T01:14:42.260Z,8.16
2023-01-04T01:17:08.833Z,8.18
2023-01-04T01:19:35.361Z,8.19
2023-01-04T01:22:01.805Z,8.18
2023-01-04T01:24:28.272Z,8.22
2023-01-04T01:26:55.547Z,8.24
2023-01-04T01:29:22.277Z,8.24
2023-01-04T01:31:48.868Z,8.27
2023-01-04T01:34:15.406Z,8.29
2023-01-04T01:36:41.896Z,8.34
2023-01-04T01:39:08.392Z,8.36
2023-01-04T01:41:36.415Z,8.39
2023-01-04T01:44:07.096Z,8.41
2023-01-04T01:46:51.516Z,8.43
2023-01-04T01:49:26.901Z,8.45
2023-01-04T01:51:56.059Z,8.44
2023-01-04T01:54:39.350Z,8.46
2023-01-04T01:57:09.071Z,8.51
2023-01-04T01:59:40.596Z,8.56
2023-01-04T02:02:07.365Z,8.60
2023-01-04T02:04:35.838Z,8.62
2023-01-04T02:07:02.917Z,8.63
2023-01-04T02:09:31.113Z,8.66
2023-01-04T02:11:57.662Z,8.69
2023-01-04T02:14:27.561Z,8.72
2023-01-04T02:17:11.518Z,8.70
2023-01-04T02:19:40.971Z,8.76
2023-01-04T02:22:41.411Z,8.79
2023-01-04T02:25:37.203Z,8.84
2023-01-04T02:28:16.532Z,8.91
2023-01-04T02:31:21.363Z,8.89
2023-01-04T02:33:47.853Z,8.95
2023-01-04T02:36:16.928Z,8.96
2023-01-04T02:38:59.556Z,8.97
2023-01-04T02:42:03.981Z,9.03
2023-01-04T02:44:53.644Z,9.04
2023-01-04T02:47:47.088Z,9.07
2023-01-04T02:50:50.055Z,9.07
2023-01-04T02:53:38.706Z,9.15
2023-01-04T02:56:09.168Z,9.22
2023-01-04T02:59:02.201Z,9.22
2023-01-04T03:02:08.491Z,9.23
2023-01-04T03:05:07.638Z,9.25
2023-01-04T03:07:46.834Z,9.25
2023-01-04T03:10:33.385Z,9.24
2023-01-04T03:13:09.200Z,9.24
2023-01-04T03:15:39.593Z,9.27
2023-01-04T03:18:11.633Z,9.27
2023-01-04T03:20:39.463Z,9.26
2023-01-04T03:23:28.698Z,9.32
2023-01-04T03:26:54.079Z,9.33
2023-01-04T03:30:09.043Z,9.32
2023-01-04T03:33:24.687Z,9.35
2023-01-04T03:36:04.495Z,9.37
2023-01-04T03:38:58.240Z,9.42
2023-01-04T03:41:48.480Z,9.44
2023-01-04T03:44:42.221Z,9.46
2023-01-04T03:47:42.536Z,9.55
2023-01-04T03:50:25.235Z,9.60
2023-01-04T03:52:53.849Z,9.58
2023-01-04T03:55:21.615Z,9.64
2023-01-04T03:57:48.898Z,9.64
2023-01-04T04:00:17.926Z,9.67
2023-01-04T04:02:47.208Z,9.69
2023-01-04T04:05:37.958Z,9.73
2023-01-04T04:08:23.701Z,9.80
2023-01-04T04:10:50.629Z,9.84
2023-01-04T04:13:17.115Z,9.91
2023-01-04T04:15:43.723Z,9.93
2023-01-04T04:18:10.245Z,9.92
2023-01-04T04:20:36.880Z,9.94
2023-01-04T04:23:03.818Z,9.96
2023-01-04T04:25:30.284Z,9.99
2023-01-04T04:27:56.875Z,10.02
2023-01-04T04:30:23.515Z,10.05
2023-01-04T04:32:50.014Z,10.04
2023-01-04T04:35:16.633Z,10.02
2023-01-04T04:37:43.103Z,10.06
2023-01-04T04:40:30.193Z,10.09
2023-01-04T04:42:56.662Z,10.12
2023-01-04T04:45:23.127Z,10.15
2023-01-04T04:47:49.573Z,10.18
2023-01-04T04:50:16.020Z,10.18
2023-01-04T04:52:42.484Z,10.19
2023-01-04T04:55:09.184Z,10.17
2023-01-04T04:57:35.645Z,10.19
2023-01-04T05:00:02.520Z,10.16
2023-01-04T05:02:29.108Z,10.12
2023-01-04T05:04:55.720Z,10.14
2023-01-04T05:07:22.186Z,10.11
2023-01-04T05:09:48.665Z,10.10
2023-01-04T05:12:33.730Z,10.13
2023-01-04T05:15:00.182Z,10.10
2023-01-04T05:17:26.651Z,10.10
2023-01-04T05:19:53.176Z,10.05
2023-01-04T05:22:19.640Z,10.06
2023-01-04T05:24:46.074Z,10.07
2023-01-04T05:27:12.549Z,10.08
2023-01-04T05:29:57.361Z,10.07
2023-01-04T05:32:23.837Z,10.08
2023-01-04T05:34:50.280Z,10.06
2023-01-04T05:37:16.700Z,10.08
2023-01-04T05:39:43.144Z,10.09
2023-01-04T05:42:28.220Z,10.07
2023-01-04T05:44:57.195Z,10.10
2023-01-04T05:47:24.540Z,10.12
2023-01-04T05:49:51.664Z,10.11
2023-01-04T05:52:18.566Z,10.13
2023-01-04T05:54:45.039Z,10.11
2023-01-04T05:57:11.592Z,10.12
2023-01-04T05:59:41.827Z,10.11
2023-01-04T06:02:14.502Z,10.13
2023-01-04T06:04:41.006Z,10.15
2023-01-04T06:07:07.450Z,10.18
2023-01-04T06:09:33.904Z,10.16
2023-01-04T06:12:00.354Z,10.18
2023-01-04T06:14:26.807Z,10.17
2023-01-04T06:16:53.297Z,10.16
2023-01-04T06:19:19.781Z,10.19
2023-01-04T06:21:46.370Z,10.19
2023-01-04T06:24:12.997Z,10.18
2023-01-04T06:26:39.468Z,10.21
2023-01-04T06:29:06.042Z,10.22
2023-01-04T06:31:33.667Z,10.21
2023-01-04T06:34:00.313Z,10.24
2023-01-04T06:36:27.246Z,10.27
2023-01-04T06:38:53.895Z,10.31
2023-01-04T06:41:20.400Z,10.32
2023-01-04T06:43:46.877Z,10.34
2023-01-04T06:46:13.399Z,10.36
2023-01-04T06:48:39.938Z,10.34
2023-01-04T06:51:06.494Z,10.38
2023-01-04T06:53:32.979Z,10.39
2023-01-04T06:55:59.469Z,10.42
2023-01-04T06:58:26.153Z,10.47
2023-01-04T07:00:55.231Z,10.48
2023-01-04T07:03:22.737Z,10.45
2023-01-04T07:05:49.328Z,10.47
2023-01-04T07:08:16.250Z,10.45
2023-01-04T07:10:42.862Z,10.45
2023-01-04T07:13:09.902Z,10.46
2023-01-04T07:15:39.662Z,10.48
2023-01-04T07:18:07.772Z,10.50
2023-01-04T07:20:34.245Z,10.51
2023-01-04T07:23:00.788Z,10.55
2023-01-04T07:25:27.275Z,10.56
2023-01-04T07:27:55.096Z,10.56
2023-01-04T07:30:23.121Z,10.56
2023-01-04T07:32:52.179Z,10.55
2023-01-04T07:35:19.362Z,10.57
2023-01-04T07:37:46.155Z,10.58
2023-01-04T07:40:13.334Z,10.55
2023-01-04T07:42:39.881Z,10.55
2023-01-04T07:45:07.035Z,10.53
2023-01-04T07:47:33.732Z,10.53
2023-01-04T07:50:00.748Z,10.56
2023-01-04T07:52:27.690Z,10.59
2023-01-04T07:54:54.196Z,10.56
2023-01-04T07:57:20.650Z,10.55
2023-01-04T07:59:47.116Z,10.54
2023-01-04T08:02:14.042Z,10.52
2023-01-04T08:04:40.598Z,10.54
2023-01-04T08:07:07.131Z,10.53
2023-01-04T08:09:33.594Z,10.57
2023-01-04T08:12:00.704Z,10.59
2023-01-04T08:14:27.219Z,10.59
2023-01-04T08:16:54.072Z,10.60
2023-01-04T08:19:21.455Z,10.62
2023-01-04T08:21:48.692Z,10.63
2023-01-04T08:24:18.576Z,10.66
2023-01-04T08:26:45.413Z,10.66
2023-01-04T08:29:12.795Z,10.68
2023-01-04T08:31:39.938Z,10.66
2023-01-04T08:34:08.937Z,10.67
2023-01-04T08:36:44.455Z,10.67
2023-01-04T08:39:10.982Z,10.64
2023-01-04T08:42:01.110Z,10.65
2023-01-04T08:44:31.634Z,10.66
2023-01-04T08:46:58.962Z,10.66
2023-01-04T08:49:25.647Z,10.66
2023-01-04T08:51:52.533Z,10.69
2023-01-04T08:54:19.274Z,10.69
2023-01-04T08:56:45.751Z,10.69
2023-01-04T08:59:13.996Z,10.68
2023-01-04T09:01:41.293Z,10.69
2023-01-04T09:04:08.305Z,10.71
2023-01-04T09:06:35.499Z,10.70
2023-01-04T09:09:02.028Z,10.72
2023-01-04T09:11:28.651Z,10.76
2023-01-04T09:14:04.377Z,10.78
2023-01-04T09:16:33.724Z,10.80
2023-01-04T09:19:00.275Z,10.82
2023-01-04T09:21:26.824Z,10.81
2023-01-04T09:23:53.313Z,10.82
2023-01-04T09:26:22.399Z,10.86
2023-01-04T09:28:50.591Z,10.86
2023-01-04T09:31:19.554Z,10.87
2023-01-04T09:36:33.022Z,10.91
2023-01-04T09:38:59.450Z,10.92
2023-01-04T09:41:27.073Z,10.93
2023-01-04T09:44:03.490Z,10.92
2023-01-04T09:46:50.295Z,10.94
2023-01-04T09:49:29.182Z,10.96
2023-01-04T09:52:10.981Z,10.95
2023-01-04T09:54:54.145Z,10.95
2023-01-04T09:57:35.354Z,10.97
2023-01-04T10:00:19.825Z,10.99
2023-01-04T10:02:51.716Z,11.00
2023-01-04T10:05:23.311Z,10.99
2023-01-04T10:07:49.948Z,11.02
2023-01-04T10:10:20.927Z,11.02
2023-01-04T10:13:16.655Z,11.01
2023-01-04T10:16:30.306Z,11.03
2023-01-04T10:22:42.012Z,11.04
2023-01-04T10:25:29.740Z,11.03
2023-01-04T10:28:11.602Z,11.06
2023-01-04T10:30:59.245Z,11.06
2023-01-04T10:33:38.214Z,11.08
2023-01-04T10:36:24.325Z,11.11
2023-01-04T10:38:58.900Z,11.07
2023-01-04T10:41:27.734Z,11.10
2023-01-04T10:44:11.672Z,11.11
2023-01-04T10:46:49.612Z,11.11
2023-01-04T10:49:23.190Z,11.13
2023-01-04T10:51:56.110Z,11.16
2023-01-04T10:54:53.395Z,11.15
2023-01-04T10:57:39.941Z,11.18
2023-01-04T11:00:24.155Z,11.20
2023-01-04T11:03:08.544Z,11.19
2023-01-04T11:05:45.689Z,11.20
2023-01-04T11:08:20.130Z,11.18
2023-01-04T11:11:09.429Z,11.20
2023-01-04T11:13:36.271Z,11.22
2023-01-04T11:16:05.293Z,11.23
2023-01-04T11:18:35.412Z,11.22
2023-01-04T11:21:06.201Z,11.21
2023-01-04T11:23:32.632Z,11.21
2023-01-04T11:26:05.858Z,11.23
2023-01-04T11:29:07.297Z,11.21
2023-01-04T11:31:49.477Z,11.20
2023-01-04T11:34:16.123Z,11.21
2023-01-04T11:36:44.665Z,11.22
2023-01-04T11:39:22.854Z,11.23
2023-01-04T11:42:04.439Z,11.24
2023-01-04T11:44:33.146Z,11.29
2023-01-04T11:47:21.094Z,11.31
2023-01-04T11:49:48.268Z,11.35
2023-01-04T11:52:36.640Z,11.39
2023-01-04T11:55:24.883Z,11.45
2023-01-04T11:58:15.682Z,11.49
2023-01-04T12:01:22.072Z,11.52
2023-01-04T12:03:48.536Z,11.53
2023-01-04T12:06:22.703Z,11.59
2023-01-04T12:08:49.327Z,11.64
2023-01-04T12:11:28.517Z,11.63
2023-01-04T12:13:55.036Z,11.63
2023-01-04T12:16:34.034Z,11.68
2023-01-04T12:19:00.862Z,11.67
2023-01-04T12:21:27.439Z,11.68
2023-01-04T12:23:55.830Z,11.75
2023-01-04T12:26:25.778Z,11.71
2023-01-04T12:29:22.229Z,11.69
2023-01-04T12:31:50.621Z,11.75
2023-01-04T12:34:43.365Z,11.80
2023-01-04T12:37:12.200Z,11.79
2023-01-04T12:39:42.603Z,11.80
2023-01-04T12:42:13.230Z,11.84
2023-01-04T12:44:39.873Z,11.79
2023-01-04T12:47:37.332Z,11.85
2023-01-04T12:50:14.618Z,11.90
2023-01-04T12:53:28.230Z,11.92
2023-01-04T12:55:33.829Z,11.92
2023-01-04T12:58:49.617Z,12.01
2023-01-04T13:01:26.453Z,11.97
2023-01-04T13:04:06.113Z,11.96
2023-01-04T13:06:42.530Z,11.99
2023-01-04T13:09:23.751Z,12.06
2023-01-04T13:11:57.173Z,12.08
2023-01-04T13:14:36.638Z,12.04
2023-01-04T13:17:19.900Z,12.04
2023-01-04T13:19:47.016Z,12.07
2023-01-04T13:22:28.313Z,12.07
2023-01-04T13:24:57.776Z,12.07
2023-01-04T13:27:25.099Z,12.09
2023-01-04T13:29:52.535Z,12.10
2023-01-04T13:32:28.110Z,12.07
2023-01-04T13:35:14.021Z,12.07
2023-01-04T13:37:44.736Z,12.06
2023-01-04T13:40:24.568Z,12.12
2023-01-04T13:43:02.786Z,12.14
2023-01-04T13:45:41.688Z,12.11
2023-01-04T13:48:14.652Z,12.11
2023-01-04T13:50:50.083Z,12.12
2023-01-04T13:53:25.675Z,12.06
2023-01-04T13:55:55.775Z,12.06
2023-01-04T13:58:24.974Z,12.05
2023-01-04T14:01:06.564Z,12.05
2023-01-04T14:03:41.185Z,12.04
2023-01-04T14:06:20.950Z,12.05
2023-01-04T14:08:59.500Z,12.06
2023-01-04T14:11:46.387Z,12.06
2023-01-04T14:14:22.140Z,12.06
2023-01-04T14:16:50.540Z,12.07
2023-01-04T14:19:41.700Z,12.09
2023-01-04T14:22:23.352Z,12.11
2023-01-04T14:25:09.084Z,12.12
2023-01-04T14:27:39.345Z,12.10
2023-01-04T14:30:32.139Z,12.14
2023-01-04T14:33:13.361Z,12.17
2023-01-04T14:35:44.115Z,12.28
2023-01-04T14:38:17.771Z,12.32
2023-01-04T14:40:45.524Z,12.34
2023-01-04T14:43:32.894Z,12.30
2023-01-04T14:45:59.342Z,12.26
2023-01-04T14:48:26.263Z,12.25
2023-01-04T14:50:52.734Z,12.19
2023-01-04T14:53:21.325Z,12.11
2023-01-04T14:55:47.971Z,12.05
2023-01-04T14:58:14.576Z,12.02
2023-01-04T15:00:41.530Z,11.99
2023-01-04T15:03:09.645Z,11.96
2023-01-04T15:05:38.022Z,11.98
2023-01-04T15:08:04.905Z,12.00
2023-01-04T15:10:32.073Z,12.01
2023-01-04T15:13:00.655Z,11.99
2023-01-04T15:15:27.383Z,11.95
2023-01-04T15:17:53.886Z,11.93
2023-01-04T15:20:20.512Z,11.91
2023-01-04T15:22:47.050Z,11.93
2023-01-04T15:25:13.703Z,11.88
2023-01-04T15:27:42.734Z,11.83
2023-01-04T15:30:13.724Z,11.84
2023-01-04T15:32:40.519Z,11.79
2023-01-04T15:35:07.761Z,11.79
2023-01-04T15:37:34.215Z,11.74
2023-01-04T15:40:03.129Z,11.69
2023-01-04T15:42:48.815Z,11.70
2023-01-04T15:45:15.679Z,11.72
2023-01-04T15:47:42.545Z,11.71
2023-01-04T15:50:09.831Z,11.70
2023-01-04T15:52:36.361Z,11.68
2023-01-04T15:55:03.228Z,11.69
2023-01-04T15:57:30.007Z,11.66
2023-01-04T15:59:56.458Z,11.67
2023-01-04T16:02:23.007Z,11.63
2023-01-04T16:04:50.440Z,11.63
2023-01-04T16:07:17.473Z,11.59
2023-01-04T16:09:44.399Z,11.57
2023-01-04T16:12:29.388Z,11.56
2023-01-04T16:14:55.880Z,11.58
2023-01-04T16:17:22.432Z,11.53
2023-01-04T16:19:48.984Z,11.53
2023-01-04T16:22:15.482Z,11.51
2023-01-04T16:27:34.963Z,11.53
2023-01-04T16:30:03.870Z,11.53
2023-01-04T16:32:30.680Z,11.51
2023-01-04T16:34:57.267Z,11.55
2023-01-04T16:37:28.126Z,11.54
2023-01-04T16:40:06.182Z,11.56
2023-01-04T16:42:33.763Z,11.58
2023-01-04T16:45:00.333Z,11.57
2023-01-04T16:47:27.093Z,11.55
2023-01-04T16:49:53.639Z,11.52
2023-01-04T16:52:20.330Z,11.50
2023-01-04T16:54:46.811Z,11.47
2023-01-04T16:57:13.349Z,11.47
2023-01-04T16:59:39.834Z,11.54
2023-01-04T17:02:06.414Z,11.51
2023-01-04T17:04:32.961Z,11.52
2023-01-04T17:06:59.508Z,11.43
2023-01-04T17:09:26.105Z,11.45
2023-01-04T17:14:49.109Z,11.46
2023-01-04T17:17:23.842Z,11.51
2023-01-04T17:19:50.417Z,11.48
2023-01-04T17:22:17.011Z,11.44
2023-01-04T17:24:43.554Z,11.44
2023-01-04T17:27:10.853Z,11.45
2023-01-04T17:29:37.343Z,11.46
2023-01-04T17:32:04.118Z,11.47
2023-01-04T17:34:30.680Z,11.47
2023-01-04T17:36:57.146Z,11.46
2023-01-04T17:39:23.813Z,11.43
2023-01-04T17:41:50.405Z,11.45
2023-01-04T17:44:17.073Z,11.44
2023-01-04T17:46:43.584Z,11.40
2023-01-04T17:49:31.421Z,11.34
2023-01-04T17:51:58.273Z,11.36
2023-01-04T17:54:25.659Z,11.38
2023-01-04T17:56:52.547Z,11.39
2023-01-04T17:59:19.057Z,11.39
2023-01-04T18:01:45.634Z,11.37
2023-01-04T18:04:12.399Z,11.41
2023-01-04T18:06:39.016Z,11.42
2023-01-04T18:09:06.769Z,11.41
2023-01-04T18:11:34.169Z,11.36
2023-01-04T18:14:02.897Z,11.38
2023-01-04T18:16:32.620Z,11.42
2023-01-04T18:19:00.448Z,11.42
2023-01-04T18:21:31.291Z,11.45
2023-01-04T18:27:19.902Z,11.35
2023-01-04T18:29:33.228Z,11.36
2023-01-04T18:31:59.756Z,11.34
2023-01-04T18:34:26.913Z,11.37
2023-01-04T18:36:53.581Z,11.35
2023-01-04T18:39:20.388Z,11.33
2023-01-04T18:41:47.348Z,11.29
2023-01-04T18:47:02.256Z,11.33
2023-01-04T18:49:28.735Z,11.28
2023-01-04T18:51:55.202Z,11.29
2023-01-04T18:54:22.051Z,11.26
2023-01-04T18:56:49.069Z,11.29
2023-01-04T18:59:18.995Z,11.26
2023-01-04T19:01:46.103Z,11.29
2023-01-04T19:04:13.165Z,11.29
2023-01-04T19:06:40.494Z,11.28
2023-01-04T19:09:07.542Z,11.30
2023-01-04T19:11:35.284Z,11.29
2023-01-04T19:14:02.784Z,11.30
2023-01-04T19:16:31.167Z,11.29
2023-01-04T19:18:59.498Z,11.27
2023-01-04T19:21:26.805Z,11.26
2023-01-04T19:23:53.374Z,11.28
2023-01-04T19:26:20.980Z,11.29
2023-01-04T19:28:47.961Z,11.28
2023-01-04T19:31:15.489Z,11.24
2023-01-04T19:33:42.302Z,11.27
2023-01-04T19:36:11.415Z,11.25
2023-01-04T19:38:38.354Z,11.25
2023-01-04T19:41:06.080Z,11.22
2023-01-04T19:43:33.105Z,11.22
2023-01-04T19:45:59.666Z,11.23
2023-01-04T19:48:26.681Z,11.20
2023-01-04T19:51:22.684Z,11.20
2023-01-04T19:53:49.186Z,11.18
2023-01-04T19:56:16.848Z,11.13
2023-01-04T19:58:44.130Z,11.14
2023-01-04T20:01:18.284Z,11.18
2023-01-04T20:03:45.280Z,11.17
2023-01-04T20:06:13.361Z,11.18
2023-01-04T20:08:40.865Z,11.22
2023-01-04T20:11:08.534Z,11.22
2023-01-04T20:13:35.598Z,11.25
2023-01-04T20:16:06.278Z,11.29
2023-01-04T20:18:33.640Z,11.31
2023-01-04T20:21:00.270Z,11.28
2023-01-04T20:23:26.833Z,11.31
2023-01-04T20:25:54.414Z,11.28
2023-01-04T20:28:23.452Z,11.31
2023-01-04T20:31:00.590Z,11.35
2023-01-04T20:33:27.141Z,11.38
2023-01-04T20:35:53.631Z,11.40
2023-01-04T20:38:20.158Z,11.41
2023-01-04T20:40:46.607Z,11.44
2023-01-04T20:43:31.662Z,11.43
2023-01-04T20:45:58.223Z,11.40
2023-01-04T20:48:25.055Z,11.40
2023-01-04T20:50:52.012Z,11.40
2023-01-04T20:53:19.110Z,11.40
2023-01-04T20:55:45.686Z,11.35
2023-01-04T20:58:14.453Z,11.36
2023-01-04T21:00:41.740Z,11.37
2023-01-04T21:03:10.596Z,11.34
2023-01-04T21:05:39.761Z,11.34
2023-01-04T21:08:06.802Z,11.37
2023-01-04T21:10:34.656Z,11.39
2023-01-04T21:13:01.133Z,11.40
2023-01-04T21:15:27.664Z,11.35
2023-01-04T21:17:54.116Z,11.31
2023-01-04T21:20:21.682Z,11.30
2023-01-04T21:22:48.240Z,11.30
2023-01-04T21:25:14.829Z,11.32
2023-01-04T21:27:41.375Z,11.34
2023-01-04T21:30:08.277Z,11.35
2023-01-04T21:32:34.795Z,11.35
2023-01-04T21:35:01.290Z,11.37
2023-01-04T21:37:28.652Z,11.34
2023-01-04T21:39:55.192Z,11.29
2023-01-04T21:42:21.661Z,11.25
2023-01-04T21:44:48.125Z,11.27
2023-01-04T21:47:14.778Z,11.26
2023-01-04T21:49:43.751Z,11.25
2023-01-04T21:52:11.045Z,11.24
2023-01-04T21:54:39.174Z,11.23
2023-01-04T21:57:08.182Z,11.24
2023-01-04T21:59:36.324Z,11.26
2023-01-04T22:02:03.281Z,11.23
2023-01-04T22:04:30.309Z,11.24
2023-01-04T22:06:57.150Z,11.14
2023-01-04T22:09:24.136Z,11.12
2023-01-04T22:11:50.902Z,11.11
2023-01-04T22:14:18.326Z,11.06
2023-01-04T22:16:44.886Z,11.02
2023-01-04T22:19:13.642Z,11.01
2023-01-04T22:21:41.016Z,10.95
2023-01-04T22:24:12.083Z,10.89
2023-01-04T22:26:38.835Z,10.84
2023-01-04T22:29:05.474Z,10.77
2023-01-04T22:31:32.060Z,10.73
2023-01-04T22:33:58.633Z,10.71
2023-01-04T22:36:25.513Z,10.67
2023-01-04T22:38:53.343Z,10.66
2023-01-04T22:41:21.671Z,10.69
2023-01-04T22:43:53.071Z,10.69
2023-01-04T22:46:19.529Z,10.70
2023-01-04T22:48:46.055Z,10.65
2023-01-04T22:51:15.471Z,10.66
2023-01-04T22:53:42.013Z,10.70
2023-01-04T22:56:19.682Z,10.68
2023-01-04T22:58:52.459Z,10.70
2023-01-04T23:01:21.103Z,10.71
2023-01-04T23:03:48.560Z,10.70
2023-01-04T23:06:15.316Z,10.69
2023-01-04T23:08:41.779Z,10.67
2023-01-04T23:11:19.125Z,10.66
2023-01-04T23:13:45.953Z,10.65
2023-01-04T23:16:14.975Z,10.66
2023-01-04T23:18:41.803Z,10.63
2023-01-04T23:21:09.434Z,10.65
2023-01-04T23:23:35.915Z,10.68
2023-01-04T23:26:13.423Z,10.68
2023-01-04T23:28:40.199Z,10.67
2023-01-04T23:31:09.078Z,10.66
2023-01-04T23:33:36.872Z,10.65
2023-01-04T23:36:07.733Z,10.63
2023-01-04T23:38:34.415Z,10.64
2023-01-04T23:41:00.861Z,10.63
2023-01-04T23:43:27.542Z,10.63
2023-01-04T23:45:54.072Z,10.58
2023-01-04T23:48:20.561Z,10.58
2023-01-04T23:50:57.211Z,10.58
2023-01-04T23:53:24.869Z,10.52
2023-01-04T23:56:06.023Z,10.50
2023-01-04T23:58:32.850Z,10.53
